createdAt,value
2022-12-04T00:01:24.112Z,12.57
2022-12-04T00:03:55.450Z,11.48
2022-12-04T00:06:23.813Z,11.65
2022-12-04T00:08:51.839Z,13.00
2022-12-04T00:11:20.693Z,12.43
2022-12-04T00:13:48.321Z,13.38
2022-12-04T00:16:18.460Z,14.10
2022-12-04T00:18:46.142Z,14.30
2022-12-04T00:21:15.059Z,13.40
2022-12-04T00:23:42.718Z,11.98
2022-12-04T00:26:11.482Z,14.60
2022-12-04T00:28:39.268Z,15.05
2022-12-04T00:31:10.500Z,13.93
2022-12-04T00:33:38.276Z,14.98
2022-12-04T00:36:07.042Z,13.70
2022-12-04T00:38:34.933Z,13.57
2022-12-04T00:41:02.445Z,13.38
2022-12-04T00:43:30.555Z,13.40
2022-12-04T00:45:58.199Z,12.60
2022-12-04T00:48:25.830Z,13.88
2022-12-04T00:50:54.221Z,14.18
2022-12-04T00:53:22.148Z,13.82
2022-12-04T00:55:49.609Z,14.15
2022-12-04T00:58:17.032Z,12.55
2022-12-04T01:00:44.459Z,12.90
2022-12-04T01:03:12.022Z,13.55
2022-12-04T01:05:44.361Z,12.68
2022-12-04T01:08:12.974Z,12.05
2022-12-04T01:10:41.326Z,12.70
2022-12-04T01:13:09.065Z,12.30
2022-12-04T01:15:40.431Z,12.50
2022-12-04T01:18:08.113Z,12.55
2022-12-04T01:20:35.495Z,13.23
2022-12-04T01:23:03.044Z,11.70
2022-12-04T01:25:30.618Z,11.93
2022-12-04T01:27:58.296Z,11.85
2022-12-04T01:30:25.737Z,13.10
2022-12-04T01:32:53.127Z,13.40
2022-12-04T01:35:20.658Z,12.55
2022-12-04T01:37:48.075Z,11.93
2022-12-04T01:40:17.822Z,12.40
2022-12-04T01:42:45.233Z,13.43
2022-12-04T01:45:45.200Z,13.32
2022-12-04T01:48:22.297Z,12.02
2022-12-04T01:50:51.865Z,12.40
2022-12-04T01:53:20.003Z,11.48
2022-12-04T01:55:48.195Z,12.52
2022-12-04T01:58:16.453Z,12.18
2022-12-04T02:00:45.566Z,12.05
2022-12-04T02:03:15.966Z,10.50
2022-12-04T02:05:43.410Z,11.45
2022-12-04T02:08:11.190Z,11.52
2022-12-04T02:10:58.878Z,11.88
2022-12-04T02:13:32.404Z,12.43
2022-12-04T02:16:03.625Z,13.05
2022-12-04T02:18:36.309Z,12.40
2022-12-04T02:21:10.397Z,12.32
2022-12-04T02:23:47.601Z,13.27
2022-12-04T02:26:38.218Z,14.40
2022-12-04T02:29:08.666Z,12.52
2022-12-04T02:31:41.674Z,13.23
2022-12-04T02:34:24.433Z,13.18
2022-12-04T02:36:54.866Z,14.00
2022-12-04T02:39:42.593Z,14.80
2022-12-04T02:42:15.840Z,13.32
2022-12-04T02:44:49.543Z,14.18
2022-12-04T02:47:18.974Z,14.63
2022-12-04T02:49:48.268Z,15.27
2022-12-04T02:52:18.852Z,14.93
2022-12-04T02:54:48.873Z,14.43
2022-12-04T02:57:20.490Z,14.48
2022-12-04T02:59:49.746Z,14.93
2022-12-04T03:02:24.463Z,14.93
2022-12-04T03:04:52.908Z,14.02
2022-12-04T03:07:29.188Z,15.57
2022-12-04T03:09:58.599Z,14.80
2022-12-04T03:12:33.957Z,15.38
2022-12-04T03:17:34.449Z,14.00
2022-12-04T03:20:04.074Z,14.52
2022-12-04T03:22:32.507Z,13.23
2022-12-04T03:25:00.373Z,14.10
2022-12-04T03:27:27.718Z,15.02
2022-12-04T03:30:30.555Z,14.05
2022-12-04T03:33:03.982Z,13.00
2022-12-04T03:35:40.850Z,13.27
2022-12-04T03:38:19.557Z,13.98
2022-12-04T03:41:07.269Z,14.02
2022-12-04T03:43:47.459Z,12.73
2022-12-04T03:46:23.712Z,13.82
2022-12-04T03:48:56.982Z,13.27
2022-12-04T03:51:27.337Z,13.30
2022-12-04T03:53:57.165Z,13.20
2022-12-04T03:56:27.737Z,13.00
2022-12-04T03:58:58.068Z,13.20
2022-12-04T04:01:28.930Z,11.98
2022-12-04T04:03:57.176Z,11.23
2022-12-04T04:06:26.914Z,13.60
2022-12-04T04:08:56.480Z,12.68
2022-12-04T04:11:28.602Z,12.55
2022-12-04T04:14:27.024Z,12.02
2022-12-04T04:17:20.681Z,11.48
2022-12-04T04:20:09.684Z,12.65
2022-12-04T04:22:56.446Z,12.40
2022-12-04T04:25:25.260Z,11.38
2022-12-04T04:27:56.201Z,12.18
2022-12-04T04:30:23.700Z,12.90
2022-12-04T04:32:53.862Z,12.13
2022-12-04T04:35:33.527Z,11.50
2022-12-04T04:38:00.955Z,12.32
2022-12-04T04:40:34.393Z,12.00
2022-12-04T04:43:19.820Z,10.82
2022-12-04T04:45:47.259Z,11.70
2022-12-04T04:48:16.846Z,11.32
2022-12-04T04:50:45.587Z,12.23
2022-12-04T04:53:14.374Z,12.25
2022-12-04T04:55:41.940Z,11.48
2022-12-04T04:58:19.686Z,15.05
2022-12-04T05:00:51.804Z,12.20
2022-12-04T05:03:19.361Z,13.27
2022-12-04T05:05:46.808Z,12.48
2022-12-04T05:08:14.407Z,12.73
2022-12-04T05:10:41.887Z,12.38
2022-12-04T05:13:10.334Z,11.80
2022-12-04T05:15:37.742Z,12.23
2022-12-04T05:18:05.498Z,10.40
2022-12-04T05:20:32.965Z,10.40
2022-12-04T05:23:00.505Z,11.60
2022-12-04T05:25:28.081Z,13.60
2022-12-04T05:27:55.544Z,12.55
2022-12-04T05:30:22.913Z,10.82
2022-12-04T05:32:50.350Z,11.13
2022-12-04T05:35:18.009Z,12.18
2022-12-04T05:37:45.669Z,12.55
2022-12-04T05:40:13.300Z,12.63
2022-12-04T05:42:40.769Z,18.52
2022-12-04T05:45:08.551Z,17.63
2022-12-04T05:47:39.489Z,11.20
2022-12-04T05:50:07.433Z,12.93
2022-12-04T05:52:34.805Z,12.90
2022-12-04T05:55:02.565Z,11.45
2022-12-04T05:57:30.279Z,13.93
2022-12-04T05:59:57.901Z,11.73
2022-12-04T06:02:25.531Z,13.50
2022-12-04T06:04:52.952Z,11.68
2022-12-04T06:07:20.435Z,12.50
2022-12-04T06:09:47.798Z,12.32
2022-12-04T06:12:15.296Z,11.63
2022-12-04T06:14:42.676Z,10.77
2022-12-04T06:17:10.128Z,10.65
2022-12-04T06:19:37.577Z,11.00
2022-12-04T06:22:05.077Z,11.65
2022-12-04T06:24:32.503Z,12.07
2022-12-04T06:29:47.878Z,15.48
2022-12-04T06:32:21.122Z,15.38
2022-12-04T06:34:53.285Z,13.30
2022-12-04T06:37:21.852Z,20.63
2022-12-04T06:39:49.266Z,13.13
2022-12-04T06:42:17.287Z,15.07
2022-12-04T06:44:44.661Z,12.38
2022-12-04T06:47:12.121Z,12.18
2022-12-04T06:49:39.578Z,12.52
2022-12-04T06:52:06.968Z,11.70
2022-12-04T06:54:34.401Z,11.60
2022-12-04T06:57:01.767Z,11.35
2022-12-04T06:59:29.291Z,9.70
2022-12-04T07:01:56.844Z,10.13
2022-12-04T07:04:24.789Z,10.52
2022-12-04T07:06:52.237Z,10.38
2022-12-04T07:09:19.686Z,11.35
2022-12-04T07:11:47.388Z,10.85
2022-12-04T07:14:15.238Z,11.20
2022-12-04T07:16:43.340Z,12.13
2022-12-04T07:19:12.513Z,10.35
2022-12-04T07:21:39.893Z,15.00
2022-12-04T07:24:07.599Z,18.67
2022-12-04T07:26:35.085Z,11.32
2022-12-04T07:29:02.531Z,12.10
2022-12-04T07:31:30.544Z,11.65
2022-12-04T07:33:58.622Z,10.95
2022-12-04T07:36:26.818Z,12.50
2022-12-04T07:38:55.542Z,11.40
2022-12-04T07:41:22.990Z,13.65
2022-12-04T07:43:50.412Z,13.25
2022-12-04T07:46:19.636Z,12.80
2022-12-04T07:48:47.245Z,13.55
2022-12-04T07:51:16.467Z,13.27
2022-12-04T07:53:44.624Z,14.25
2022-12-04T07:56:13.227Z,13.38
2022-12-04T07:58:41.035Z,12.93
2022-12-04T08:01:12.424Z,13.40
2022-12-04T08:03:48.100Z,11.55
2022-12-04T08:06:17.200Z,11.20
2022-12-04T08:08:44.584Z,10.50
2022-12-04T08:11:13.617Z,11.02
2022-12-04T08:13:41.117Z,12.60
2022-12-04T08:16:09.518Z,11.80
2022-12-04T08:18:37.078Z,11.02
2022-12-04T08:21:08.313Z,10.70
2022-12-04T08:23:35.985Z,11.50
2022-12-04T08:26:03.980Z,13.32
2022-12-04T08:28:32.117Z,12.00
2022-12-04T08:31:03.828Z,10.23
2022-12-04T08:33:31.394Z,11.50
2022-12-04T08:35:58.956Z,11.80
2022-12-04T08:38:26.628Z,11.32
2022-12-04T08:40:53.974Z,9.70
2022-12-04T08:43:21.423Z,10.00
2022-12-04T08:45:58.562Z,10.23
2022-12-04T08:48:26.461Z,9.00
2022-12-04T08:50:54.039Z,8.95
2022-12-04T08:53:21.500Z,9.77
2022-12-04T08:55:49.193Z,10.27
2022-12-04T08:58:16.655Z,9.32
2022-12-04T09:00:44.429Z,9.55
2022-12-04T09:03:15.810Z,13.32
2022-12-04T09:05:45.841Z,10.57
2022-12-04T09:08:14.004Z,9.63
2022-12-04T09:10:41.761Z,10.80
2022-12-04T09:13:09.377Z,7.32
2022-12-04T09:15:40.103Z,8.02
2022-12-04T09:18:08.400Z,8.93
2022-12-04T09:20:36.111Z,8.32
2022-12-04T09:23:05.238Z,7.63
2022-12-04T09:25:35.992Z,8.07
2022-12-04T09:28:03.433Z,8.05
2022-12-04T09:30:30.859Z,8.18
2022-12-04T09:32:58.373Z,6.57
2022-12-04T09:35:25.783Z,6.80
2022-12-04T09:37:53.270Z,6.22
2022-12-04T09:40:35.189Z,6.30
2022-12-04T09:43:14.170Z,6.75
2022-12-04T09:45:49.531Z,6.03
2022-12-04T09:50:45.610Z,6.55
2022-12-04T09:53:13.043Z,6.75
2022-12-04T09:55:43.275Z,7.13
2022-12-04T09:58:22.438Z,7.03
2022-12-04T10:00:51.383Z,6.07
2022-12-04T10:03:20.290Z,6.50
2022-12-04T10:05:47.701Z,6.07
2022-12-04T10:08:35.600Z,6.40
2022-12-04T10:11:06.175Z,5.80
2022-12-04T10:13:51.134Z,6.30
2022-12-04T10:16:18.686Z,5.72
2022-12-04T10:18:51.932Z,4.63
2022-12-04T10:21:19.392Z,5.82
2022-12-04T10:23:52.805Z,5.72
2022-12-04T10:26:23.103Z,5.05
2022-12-04T10:28:56.213Z,5.10
2022-12-04T10:31:24.640Z,5.38
2022-12-04T10:33:54.455Z,5.80
2022-12-04T10:36:25.541Z,6.68
2022-12-04T10:39:07.180Z,7.07
2022-12-04T10:41:37.623Z,10.43
2022-12-04T10:44:05.575Z,9.25
2022-12-04T10:46:35.086Z,7.10
2022-12-04T10:49:04.638Z,7.20
2022-12-04T10:51:36.510Z,6.20
2022-12-04T10:54:10.016Z,9.18
2022-12-04T10:56:37.483Z,7.68
2022-12-04T10:59:06.664Z,5.85
2022-12-04T11:01:34.859Z,6.32
2022-12-04T11:04:08.408Z,6.95
2022-12-04T11:06:36.395Z,9.85
2022-12-04T11:09:04.239Z,6.80
2022-12-04T11:11:33.166Z,7.50
2022-12-04T11:14:17.686Z,5.78
2022-12-04T11:16:46.624Z,5.20
2022-12-04T11:19:21.292Z,5.88
2022-12-04T11:21:49.037Z,5.70
2022-12-04T11:24:24.798Z,5.25
2022-12-04T11:26:53.093Z,5.00
2022-12-04T11:29:23.222Z,6.85
2022-12-04T11:31:55.342Z,6.00
2022-12-04T11:34:25.423Z,5.20
2022-12-04T11:36:54.511Z,4.47
2022-12-04T11:39:30.683Z,7.13
2022-12-04T11:42:02.327Z,7.47
2022-12-04T11:44:31.278Z,8.00
2022-12-04T11:47:00.265Z,6.72
2022-12-04T11:49:28.838Z,9.80
2022-12-04T11:52:15.099Z,8.13
2022-12-04T11:54:57.760Z,4.47
2022-12-04T11:57:31.045Z,4.80
2022-12-04T11:59:58.833Z,4.72
2022-12-04T12:02:40.768Z,4.72
2022-12-04T12:05:26.839Z,4.93
2022-12-04T12:08:21.448Z,5.80
2022-12-04T12:10:51.998Z,5.60
2022-12-04T12:13:22.605Z,7.07
2022-12-04T12:16:01.578Z,7.10
2022-12-04T12:18:35.123Z,5.93
2022-12-04T12:21:09.490Z,5.65
2022-12-04T12:23:42.853Z,4.95
2022-12-04T12:26:15.131Z,4.90
2022-12-04T12:28:58.497Z,5.78
2022-12-04T12:31:40.883Z,6.50
2022-12-04T12:34:11.549Z,7.97
2022-12-04T12:36:43.980Z,9.60
2022-12-04T12:39:31.803Z,6.20
2022-12-04T12:42:02.014Z,11.27
2022-12-04T12:44:34.766Z,4.57
2022-12-04T12:47:08.398Z,6.68
2022-12-04T12:49:46.589Z,4.47
2022-12-04T12:52:37.322Z,10.38
2022-12-04T12:55:24.971Z,13.13
2022-12-04T12:58:11.685Z,6.95
2022-12-04T13:00:43.261Z,9.98
2022-12-04T13:03:13.773Z,9.02
2022-12-04T13:05:43.490Z,9.23
2022-12-04T13:08:13.764Z,14.27
2022-12-04T13:10:44.433Z,12.05
2022-12-04T13:13:15.121Z,7.80
2022-12-04T13:15:42.581Z,6.63
2022-12-04T13:18:11.673Z,5.32
2022-12-04T13:20:53.053Z,6.35
2022-12-04T13:23:40.753Z,7.78
2022-12-04T13:26:26.780Z,9.80
2022-12-04T13:29:03.309Z,8.88
2022-12-04T13:31:37.096Z,15.18
2022-12-04T13:34:10.401Z,7.60
2022-12-04T13:36:46.770Z,9.73
2022-12-04T13:39:20.242Z,10.93
2022-12-04T13:41:47.867Z,6.97
2022-12-04T13:44:21.932Z,12.77
2022-12-04T13:46:54.113Z,8.90
2022-12-04T13:49:26.731Z,12.82
2022-12-04T13:51:55.013Z,16.17
2022-12-04T13:54:40.638Z,14.57
2022-12-04T13:59:36.828Z,12.77
2022-12-04T14:02:24.614Z,10.52
2022-12-04T14:05:03.101Z,12.25
2022-12-04T14:07:35.732Z,13.95
2022-12-04T14:10:25.789Z,12.18
2022-12-04T14:13:07.934Z,11.50
2022-12-04T14:15:38.548Z,9.27
2022-12-04T14:18:16.995Z,11.65
2022-12-04T14:20:44.829Z,12.43
2022-12-04T14:23:22.561Z,10.32
2022-12-04T14:25:51.337Z,12.73
2022-12-04T14:28:41.690Z,16.67
2022-12-04T14:31:09.760Z,14.55
2022-12-04T14:33:49.079Z,12.95
2022-12-04T14:36:19.155Z,10.98
2022-12-04T14:38:48.294Z,13.00
2022-12-04T14:41:24.181Z,11.35
2022-12-04T14:43:51.747Z,15.07
2022-12-04T14:46:27.177Z,16.80
2022-12-04T14:49:13.691Z,11.27
2022-12-04T14:51:45.550Z,11.50
2022-12-04T14:54:28.285Z,9.45
2022-12-04T14:57:02.348Z,9.32
2022-12-04T14:59:46.565Z,11.18
2022-12-04T15:02:17.920Z,9.85
2022-12-04T15:04:47.149Z,11.23
2022-12-04T15:07:21.180Z,13.05
2022-12-04T15:10:11.229Z,12.73
2022-12-04T15:12:57.046Z,13.88
2022-12-04T15:15:27.533Z,24.20
2022-12-04T15:18:01.050Z,15.80
2022-12-04T15:20:34.535Z,21.95
2022-12-04T15:23:05.089Z,13.75
2022-12-04T15:25:35.883Z,13.77
2022-12-04T15:28:26.966Z,14.27
2022-12-04T15:30:55.340Z,11.98
2022-12-04T15:33:24.707Z,12.30
2022-12-04T15:35:56.668Z,14.30
2022-12-04T15:38:24.356Z,12.65
2022-12-04T15:40:56.321Z,10.52
2022-12-04T15:43:27.421Z,13.75
2022-12-04T15:45:55.211Z,12.57
2022-12-04T15:48:26.752Z,13.35
2022-12-04T15:51:05.050Z,13.25
2022-12-04T15:53:33.718Z,11.75
2022-12-04T15:56:03.353Z,14.80
2022-12-04T15:58:33.590Z,16.27
2022-12-04T16:01:03.364Z,12.05
2022-12-04T16:03:42.776Z,10.73
2022-12-04T16:06:22.533Z,11.48
2022-12-04T16:08:51.568Z,13.73
2022-12-04T16:11:18.972Z,11.40
2022-12-04T16:13:47.294Z,10.90
2022-12-04T16:16:16.456Z,11.45
2022-12-04T16:18:44.166Z,12.13
2022-12-04T16:21:31.654Z,10.95
2022-12-04T16:24:03.145Z,12.27
2022-12-04T16:26:30.661Z,12.40
2022-12-04T16:28:59.286Z,12.13
2022-12-04T16:31:27.271Z,12.60
2022-12-04T16:33:54.777Z,13.93
2022-12-04T16:36:22.320Z,12.73
2022-12-04T16:38:50.523Z,15.85
2022-12-04T16:41:18.789Z,15.40
2022-12-04T16:43:46.752Z,15.43
2022-12-04T16:46:15.797Z,16.25
2022-12-04T16:48:43.905Z,15.55
2022-12-04T16:51:18.572Z,14.10
2022-12-04T16:53:46.045Z,15.88
2022-12-04T16:56:13.542Z,15.75
2022-12-04T16:58:41.127Z,15.27
2022-12-04T17:01:15.688Z,13.60
2022-12-04T17:03:43.324Z,16.23
2022-12-04T17:06:10.724Z,11.15
2022-12-04T17:08:38.162Z,14.05
2022-12-04T17:11:05.589Z,16.85
2022-12-04T17:13:33.171Z,15.35
2022-12-04T17:16:00.692Z,16.48
2022-12-04T17:18:28.188Z,21.40
2022-12-04T17:20:56.698Z,17.63
2022-12-04T17:23:24.158Z,15.80
2022-12-04T17:25:51.594Z,15.48
2022-12-04T17:28:18.981Z,12.82
2022-12-04T17:30:48.808Z,15.57
2022-12-04T17:33:16.458Z,12.30
2022-12-04T17:35:44.288Z,14.00
2022-12-04T17:38:11.841Z,15.20
2022-12-04T17:40:39.316Z,14.80
2022-12-04T17:43:06.734Z,13.57
2022-12-04T17:45:34.119Z,13.40
2022-12-04T17:48:01.836Z,15.10
2022-12-04T17:50:29.363Z,15.82
2022-12-04T17:52:56.902Z,12.43
2022-12-04T17:55:24.328Z,15.38
2022-12-04T17:57:51.802Z,14.57
2022-12-04T18:00:19.294Z,13.63
2022-12-04T18:02:52.872Z,14.82
2022-12-04T18:05:20.881Z,13.43
2022-12-04T18:07:48.294Z,14.90
2022-12-04T18:10:15.817Z,14.75
2022-12-04T18:12:43.764Z,15.88
2022-12-04T18:15:11.254Z,18.05
2022-12-04T18:17:39.926Z,13.90
2022-12-04T18:20:08.045Z,16.15
2022-12-04T18:22:35.696Z,14.60
2022-12-04T18:25:03.868Z,15.05
2022-12-04T18:27:31.380Z,15.68
2022-12-04T18:30:00.808Z,14.65
2022-12-04T18:32:28.293Z,11.60
2022-12-04T18:34:55.695Z,14.68
2022-12-04T18:37:23.182Z,13.65
2022-12-04T18:39:51.910Z,14.60
2022-12-04T18:42:19.487Z,14.88
2022-12-04T18:44:47.572Z,16.33
2022-12-04T18:47:14.992Z,14.00
2022-12-04T18:49:42.442Z,14.45
2022-12-04T18:52:09.903Z,15.75
2022-12-04T18:54:37.308Z,16.17
2022-12-04T18:57:04.782Z,15.52
2022-12-04T18:59:33.096Z,15.25
2022-12-04T19:02:00.703Z,15.75
2022-12-04T19:04:28.206Z,16.77
2022-12-04T19:06:56.838Z,14.32
2022-12-04T19:09:47.166Z,15.02
2022-12-04T19:12:13.815Z,15.95
2022-12-04T19:14:41.379Z,14.77
2022-12-04T19:17:09.170Z,15.02
2022-12-04T19:19:36.658Z,14.82
2022-12-04T19:22:04.605Z,15.88
2022-12-04T19:24:32.336Z,16.95
2022-12-04T19:27:00.420Z,14.77
2022-12-04T19:29:27.851Z,14.75
2022-12-04T19:31:59.299Z,16.17
2022-12-04T19:34:27.377Z,16.10
2022-12-04T19:36:55.462Z,15.70
2022-12-04T19:39:22.918Z,15.40
2022-12-04T19:41:50.309Z,16.95
2022-12-04T19:47:05.258Z,14.15
2022-12-04T19:49:32.965Z,15.75
2022-12-04T19:52:00.403Z,15.68
2022-12-04T19:54:30.141Z,15.23
2022-12-04T19:56:57.579Z,12.82
2022-12-04T19:59:25.058Z,15.90
2022-12-04T20:01:52.785Z,14.98
2022-12-04T20:04:20.315Z,14.63
2022-12-04T20:06:47.926Z,13.05
2022-12-04T20:09:19.273Z,15.07
2022-12-04T20:11:46.770Z,15.60
2022-12-04T20:14:14.259Z,17.67
2022-12-04T20:16:42.767Z,13.88
2022-12-04T20:19:13.445Z,15.13
2022-12-04T20:21:41.000Z,14.23
2022-12-04T20:24:08.601Z,14.25
2022-12-04T20:26:38.481Z,14.60
2022-12-04T20:29:07.016Z,14.43
2022-12-04T20:31:35.658Z,13.80
2022-12-04T20:34:04.490Z,14.45
2022-12-04T20:36:32.758Z,12.90
2022-12-04T20:39:00.359Z,13.75
2022-12-04T20:41:29.003Z,12.88
2022-12-04T20:43:56.866Z,13.35
2022-12-04T20:46:32.264Z,13.48
2022-12-04T20:49:01.231Z,12.82
2022-12-04T20:51:32.956Z,11.50
2022-12-04T20:54:01.094Z,13.40
2022-12-04T20:56:30.084Z,12.70
2022-12-04T20:58:58.266Z,12.50
2022-12-04T21:01:26.014Z,11.20
2022-12-04T21:03:53.968Z,12.10
2022-12-04T21:06:21.410Z,12.05
2022-12-04T21:09:00.408Z,10.50
2022-12-04T21:11:29.673Z,12.25
2022-12-04T21:14:16.862Z,12.55
2022-12-04T21:16:44.375Z,11.45
2022-12-04T21:19:12.675Z,11.55
2022-12-04T21:21:40.406Z,12.05
2022-12-04T21:24:08.857Z,10.63
2022-12-04T21:26:36.561Z,12.40
2022-12-04T21:29:05.076Z,12.00
2022-12-04T21:31:32.721Z,10.98
2022-12-04T21:34:00.746Z,11.27
2022-12-04T21:36:28.914Z,10.63
2022-12-04T21:38:56.362Z,10.70
2022-12-04T21:41:42.705Z,11.65
2022-12-04T21:44:11.949Z,10.73
2022-12-04T21:46:39.704Z,10.52
2022-12-04T21:49:07.859Z,10.82
2022-12-04T21:54:23.322Z,9.55
2022-12-04T21:56:50.713Z,9.68
2022-12-04T21:59:18.193Z,10.55
2022-12-04T22:01:46.012Z,11.00
2022-12-04T22:04:13.658Z,10.38
2022-12-04T22:06:41.115Z,11.52
2022-12-04T22:09:09.584Z,9.98
2022-12-04T22:11:37.193Z,9.73
2022-12-04T22:14:04.645Z,9.43
2022-12-04T22:16:35.730Z,9.23
2022-12-04T22:19:05.957Z,8.00
2022-12-04T22:21:33.344Z,10.00
2022-12-04T22:24:01.833Z,10.20
2022-12-04T22:26:29.823Z,7.45
2022-12-04T22:28:57.803Z,10.00
2022-12-04T22:31:26.278Z,9.85
2022-12-04T22:33:55.226Z,9.68
2022-12-04T22:36:23.721Z,9.85
2022-12-04T22:39:09.836Z,9.50
2022-12-04T22:41:38.130Z,9.65
2022-12-04T22:44:06.120Z,9.80
2022-12-04T22:46:33.906Z,9.93
2022-12-04T22:49:01.564Z,8.45
2022-12-04T22:51:29.136Z,8.90
2022-12-04T22:53:57.398Z,9.70
2022-12-04T22:56:24.781Z,8.32
2022-12-04T22:58:52.409Z,9.30
2022-12-04T23:01:21.405Z,9.52
2022-12-04T23:03:49.223Z,8.75
2022-12-04T23:06:17.643Z,8.63
2022-12-04T23:08:45.672Z,9.20
2022-12-04T23:11:14.464Z,8.82
2022-12-04T23:13:41.888Z,8.18
2022-12-04T23:16:10.942Z,8.88
2022-12-04T23:18:39.779Z,8.45
2022-12-04T23:21:09.166Z,8.77
2022-12-04T23:23:37.531Z,8.80
2022-12-04T23:26:05.526Z,7.35
2022-12-04T23:28:33.166Z,8.82
2022-12-04T23:31:02.522Z,8.63
2022-12-04T23:33:30.359Z,8.15
2022-12-04T23:35:58.925Z,8.32
2022-12-04T23:38:26.756Z,8.73
2022-12-04T23:41:07.980Z,8.05
2022-12-04T23:43:35.755Z,8.63
2022-12-04T23:46:09.077Z,8.50
2022-12-04T23:48:39.119Z,8.07
2022-12-04T23:51:06.845Z,8.35
2022-12-04T23:53:34.706Z,7.38
2022-12-04T23:56:05.524Z,8.40
2022-12-04T23:58:33.340Z,7.32
